createdAt,value
2022-10-19T00:00:48.507Z,95873.03
2022-10-19T00:03:16.423Z,95873.94
2022-10-19T00:05:44.496Z,95870.09
2022-10-19T00:08:10.864Z,95866.31
2022-10-19T00:10:37.205Z,95872.84
2022-10-19T00:13:03.569Z,95867.47
2022-10-19T00:15:29.911Z,95866.81
2022-10-19T00:17:56.279Z,95867.72
2022-10-19T00:20:22.648Z,95868.38
2022-10-19T00:22:49.020Z,95872.53
2022-10-19T00:25:15.412Z,95865.19
2022-10-19T00:27:41.784Z,95867.63
2022-10-19T00:30:08.161Z,95867.97
2022-10-19T00:32:34.711Z,95862.63
2022-10-19T00:35:01.348Z,95857.66
2022-10-19T00:37:27.686Z,95856.03
2022-10-19T00:39:54.049Z,95868.06
2022-10-19T00:42:20.406Z,95872.31
2022-10-19T00:44:46.764Z,95867.38
2022-10-19T00:47:13.121Z,95869.78
2022-10-19T00:49:39.478Z,95868.69
2022-10-19T00:52:05.835Z,95860.38
2022-10-19T00:54:32.199Z,95859.53
2022-10-19T00:56:58.573Z,95868.06
2022-10-19T00:59:24.965Z,95866.53
2022-10-19T01:01:51.346Z,95864.16
2022-10-19T01:04:17.702Z,95864.75
2022-10-19T01:06:44.155Z,95867.44
2022-10-19T01:09:10.567Z,95866.00
2022-10-19T01:11:36.994Z,95864.41
2022-10-19T01:14:03.360Z,95864.41
2022-10-19T01:16:29.723Z,95860.63
2022-10-19T01:18:56.068Z,95837.69
2022-10-19T01:21:22.420Z,95841.47
2022-10-19T01:23:48.773Z,95843.06
2022-10-19T01:26:15.123Z,95843.13
2022-10-19T01:28:41.524Z,95834.75
2022-10-19T01:31:07.934Z,95838.53
2022-10-19T01:33:34.290Z,95843.19
2022-10-19T01:36:00.640Z,95838.22
2022-10-19T01:38:27.000Z,95830.91
2022-10-19T01:40:53.339Z,95832.47
2022-10-19T01:43:19.687Z,95834.91
2022-10-19T01:45:46.027Z,95832.66
2022-10-19T01:48:12.380Z,95839.59
2022-10-19T01:50:38.740Z,95837.84
2022-10-19T01:53:05.105Z,95831.75
2022-10-19T01:55:31.452Z,95831.34
2022-10-19T01:57:57.816Z,95834.50
2022-10-19T02:00:24.183Z,95826.88
2022-10-19T02:02:50.537Z,95816.16
2022-10-19T02:05:16.904Z,95821.09
2022-10-19T02:07:43.255Z,95827.22
2022-10-19T02:10:09.651Z,95828.72
2022-10-19T02:12:36.239Z,95822.28
2022-10-19T02:15:02.925Z,95831.47
2022-10-19T02:17:29.265Z,95832.22
2022-10-19T02:19:55.618Z,95822.53
2022-10-19T02:22:21.955Z,95812.38
2022-10-19T02:24:48.312Z,95814.72
2022-10-19T02:27:14.661Z,95809.97
2022-10-19T02:29:41.024Z,95816.00
2022-10-19T02:32:07.386Z,95805.78
2022-10-19T02:34:33.736Z,95799.09
2022-10-19T02:37:00.101Z,95794.50
2022-10-19T02:39:26.451Z,95797.19
2022-10-19T02:41:52.817Z,95796.13
2022-10-19T02:44:19.159Z,95789.75
2022-10-19T02:46:45.530Z,95790.38
2022-10-19T02:49:11.898Z,95786.31
2022-10-19T02:51:38.254Z,95785.38
2022-10-19T02:54:05.380Z,95788.00
2022-10-19T02:56:31.980Z,95791.78
2022-10-19T02:58:58.335Z,95786.38
2022-10-19T03:01:24.798Z,95781.97
2022-10-19T03:03:51.186Z,95784.94
2022-10-19T03:06:17.541Z,95789.00
2022-10-19T03:08:43.893Z,95788.69
2022-10-19T03:11:10.231Z,95776.97
2022-10-19T03:13:36.649Z,95775.78
2022-10-19T03:16:03.038Z,95784.16
2022-10-19T03:18:29.396Z,95775.03
2022-10-19T03:20:58.220Z,95772.78
2022-10-19T03:23:25.252Z,95774.75
2022-10-19T03:25:51.613Z,95775.22
2022-10-19T03:28:17.951Z,95779.06
2022-10-19T03:30:44.304Z,95770.66
2022-10-19T03:33:10.649Z,95770.66
2022-10-19T03:35:37.002Z,95760.69
2022-10-19T03:38:03.370Z,95766.13
2022-10-19T03:40:29.711Z,95765.69
2022-10-19T03:42:56.059Z,95765.38
2022-10-19T03:45:22.446Z,95761.50
2022-10-19T03:47:48.804Z,95775.22
2022-10-19T03:50:15.159Z,95770.31
2022-10-19T03:52:41.513Z,95772.53
2022-10-19T03:55:07.873Z,95774.13
2022-10-19T03:57:34.420Z,95777.97
2022-10-19T04:00:00.963Z,95777.84
2022-10-19T04:02:27.318Z,95775.94
2022-10-19T04:04:53.671Z,95770.19
2022-10-19T04:07:20.033Z,95783.91
2022-10-19T04:09:46.394Z,95772.75
2022-10-19T04:12:12.740Z,95783.16
2022-10-19T04:14:56.351Z,95782.44
2022-10-19T04:17:23.870Z,95766.47
2022-10-19T04:19:50.243Z,95761.97
2022-10-19T04:22:16.598Z,95762.00
2022-10-19T04:24:42.978Z,95758.97
2022-10-19T04:27:09.343Z,95770.59
2022-10-19T04:29:35.714Z,95761.09
2022-10-19T04:32:02.071Z,95759.94
2022-10-19T04:34:28.415Z,95763.03
2022-10-19T04:36:54.767Z,95768.78
2022-10-19T04:39:21.103Z,95763.84
2022-10-19T04:41:47.464Z,95762.31
2022-10-19T04:44:13.911Z,95761.88
2022-10-19T04:46:40.304Z,95753.56
2022-10-19T04:49:06.857Z,95755.72
2022-10-19T04:51:33.316Z,95767.31
2022-10-19T04:54:00.021Z,95758.56
2022-10-19T04:56:26.542Z,95764.19
2022-10-19T04:58:52.884Z,95761.00
2022-10-19T05:01:19.313Z,95758.31
2022-10-19T05:03:45.753Z,95762.63
2022-10-19T05:06:12.102Z,95757.13
2022-10-19T05:08:38.465Z,95758.69
2022-10-19T05:11:04.817Z,95756.94
2022-10-19T05:13:31.170Z,95749.66
2022-10-19T05:15:57.506Z,95740.44
2022-10-19T05:18:23.887Z,95735.78
2022-10-19T05:20:50.265Z,95739.91
2022-10-19T05:23:16.607Z,95736.09
2022-10-19T05:25:42.981Z,95739.47
2022-10-19T05:28:09.319Z,95743.75
2022-10-19T05:30:35.688Z,95735.19
2022-10-19T05:33:02.053Z,95739.44
2022-10-19T05:35:28.414Z,95738.13
2022-10-19T05:37:54.820Z,95739.97
2022-10-19T05:40:21.189Z,95734.16
2022-10-19T05:42:47.551Z,95743.16
2022-10-19T05:45:13.914Z,95740.34
2022-10-19T05:47:40.273Z,95738.44
2022-10-19T05:50:06.641Z,95737.47
2022-10-19T05:52:32.991Z,95739.31
2022-10-19T05:54:59.362Z,95740.91
2022-10-19T05:57:25.721Z,95733.75
2022-10-19T05:59:52.079Z,95737.25
2022-10-19T06:02:18.425Z,95738.06
2022-10-19T06:04:44.786Z,95737.25
2022-10-19T06:07:11.130Z,95731.09
2022-10-19T06:09:37.487Z,95734.94
2022-10-19T06:12:03.852Z,95726.81
2022-10-19T06:14:30.206Z,95731.34
2022-10-19T06:16:56.577Z,95732.41
2022-10-19T06:19:22.959Z,95728.34
2022-10-19T06:21:49.321Z,95738.41
2022-10-19T06:24:15.683Z,95740.03
2022-10-19T06:26:42.053Z,95741.13
2022-10-19T06:29:08.428Z,95747.13
2022-10-19T06:31:34.797Z,95744.81
2022-10-19T06:34:01.241Z,95745.13
2022-10-19T06:36:27.614Z,95744.47
2022-10-19T06:38:53.971Z,95741.44
2022-10-19T06:41:20.333Z,95730.69
2022-10-19T06:43:46.702Z,95732.38
2022-10-19T06:46:13.062Z,95728.53
2022-10-19T06:48:39.418Z,95737.59
2022-10-19T06:51:06.411Z,95734.03
2022-10-19T06:53:32.995Z,95744.41
2022-10-19T06:55:59.418Z,95747.41
2022-10-19T06:58:25.764Z,95752.34
2022-10-19T07:00:52.142Z,95753.69
2022-10-19T07:03:18.533Z,95757.53
2022-10-19T07:05:44.880Z,95758.84
2022-10-19T07:08:11.293Z,95762.38
2022-10-19T07:10:37.679Z,95764.53
2022-10-19T07:13:04.073Z,95758.03
2022-10-19T07:15:30.457Z,95750.06
2022-10-19T07:17:56.808Z,95748.09
2022-10-19T07:20:23.171Z,95742.34
2022-10-19T07:22:49.537Z,95743.91
2022-10-19T07:25:15.902Z,95736.41
2022-10-19T07:27:42.354Z,95737.28
2022-10-19T07:30:09.103Z,95736.03
2022-10-19T07:32:35.452Z,95742.06
2022-10-19T07:35:01.816Z,95747.00
2022-10-19T07:37:28.206Z,95740.84
2022-10-19T07:39:54.556Z,95745.31
2022-10-19T07:44:52.165Z,95752.63
2022-10-19T07:47:18.542Z,95745.38
2022-10-19T07:49:44.892Z,95747.41
2022-10-19T07:52:11.294Z,95753.81
2022-10-19T07:54:37.649Z,95746.69
2022-10-19T07:57:04.037Z,95749.03
2022-10-19T07:59:30.413Z,95755.31
2022-10-19T08:01:56.839Z,95754.41
2022-10-19T08:07:09.628Z,95763.63
2022-10-19T08:09:53.557Z,95770.34
2022-10-19T08:12:20.417Z,95754.97
2022-10-19T08:14:46.775Z,95741.00
2022-10-19T08:17:13.124Z,95739.38
2022-10-19T08:19:39.499Z,95741.75
2022-10-19T08:22:05.862Z,95729.06
2022-10-19T08:24:32.242Z,95733.31
2022-10-19T08:26:58.617Z,95720.25
2022-10-19T08:29:27.753Z,95726.84
2022-10-19T08:31:57.008Z,95718.09
2022-10-19T08:34:23.354Z,95724.22
2022-10-19T08:36:49.720Z,95719.59
2022-10-19T08:39:16.071Z,95720.41
2022-10-19T08:41:42.454Z,95720.59
2022-10-19T08:44:10.202Z,95728.97
2022-10-19T08:46:36.739Z,95726.47
2022-10-19T08:49:03.112Z,95724.38
2022-10-19T08:51:29.485Z,95720.72
2022-10-19T08:53:55.839Z,95714.16
2022-10-19T08:56:45.789Z,95713.81
2022-10-19T08:59:08.554Z,95714.09
2022-10-19T09:01:37.557Z,95712.47
2022-10-19T09:04:04.208Z,95704.25
2022-10-19T09:06:30.549Z,95706.81
2022-10-19T09:08:56.997Z,95707.66
2022-10-19T09:11:23.469Z,95706.53
2022-10-19T09:14:05.852Z,95713.34
2022-10-19T09:16:32.590Z,95697.81
2022-10-19T09:18:58.948Z,95709.41
2022-10-19T09:21:31.050Z,95702.59
2022-10-19T09:24:04.375Z,95712.09
2022-10-19T09:26:30.741Z,95708.34
2022-10-19T09:28:57.123Z,95702.47
2022-10-19T09:31:23.479Z,95711.03
2022-10-19T09:33:49.843Z,95710.72
2022-10-19T09:36:22.586Z,95704.34
2022-10-19T09:38:49.356Z,95700.91
2022-10-19T09:41:15.759Z,95704.88
2022-10-19T09:43:42.120Z,95690.22
2022-10-19T09:46:17.940Z,95686.31
2022-10-19T09:48:46.265Z,95681.69
2022-10-19T09:51:12.620Z,95675.13
2022-10-19T09:53:38.975Z,95674.16
2022-10-19T09:56:05.344Z,95674.38
2022-10-19T09:58:33.162Z,95668.69
2022-10-19T10:00:59.851Z,95671.16
2022-10-19T10:03:26.197Z,95667.19
2022-10-19T10:05:52.554Z,95666.50
2022-10-19T10:08:18.899Z,95674.16
2022-10-19T10:10:45.266Z,95675.13
2022-10-19T10:13:11.628Z,95674.81
2022-10-19T10:15:37.985Z,95678.03
2022-10-19T10:18:04.352Z,95682.09
2022-10-19T10:20:30.691Z,95675.22
2022-10-19T10:22:57.049Z,95677.59
2022-10-19T10:25:23.404Z,95677.84
2022-10-19T10:27:49.769Z,95664.91
2022-10-19T10:30:16.156Z,95669.84
2022-10-19T10:32:44.519Z,95674.50
2022-10-19T10:35:14.297Z,95667.38
2022-10-19T10:37:40.669Z,95669.34
2022-10-19T10:40:07.031Z,95666.19
2022-10-19T10:42:33.631Z,95671.47
2022-10-19T10:45:00.155Z,95661.78
2022-10-19T10:47:26.511Z,95653.00
2022-10-19T10:49:52.896Z,95652.75
2022-10-19T10:52:19.257Z,95653.09
2022-10-19T10:54:45.616Z,95645.94
2022-10-19T10:57:12.099Z,95632.88
2022-10-19T10:59:41.644Z,95642.19
2022-10-19T11:02:11.856Z,95640.34
2022-10-19T11:04:38.357Z,95640.81
2022-10-19T11:07:04.717Z,95628.28
2022-10-19T11:09:31.127Z,95629.44
2022-10-19T11:11:57.479Z,95624.94
2022-10-19T11:14:23.860Z,95620.41
2022-10-19T11:16:50.227Z,95618.81
2022-10-19T11:19:16.966Z,95614.22
2022-10-19T11:21:43.343Z,95611.81
2022-10-19T11:24:09.697Z,95610.41
2022-10-19T11:26:36.064Z,95608.59
2022-10-19T11:29:02.428Z,95611.09
2022-10-19T11:31:29.758Z,95604.53
2022-10-19T11:33:56.231Z,95592.53
2022-10-19T11:36:22.609Z,95581.25
2022-10-19T11:38:48.977Z,95579.47
2022-10-19T11:41:19.061Z,95577.34
2022-10-19T11:43:45.771Z,95582.31
2022-10-19T11:46:12.129Z,95579.38
2022-10-19T11:48:40.392Z,95571.00
2022-10-19T11:51:20.989Z,95567.88
2022-10-19T11:53:47.986Z,95565.69
2022-10-19T11:56:14.408Z,95558.69
2022-10-19T11:58:40.753Z,95557.31
2022-10-19T12:01:07.109Z,95541.31
2022-10-19T12:03:33.480Z,95543.84
2022-10-19T12:05:59.842Z,95549.84
2022-10-19T12:08:26.273Z,95547.16
2022-10-19T12:10:52.654Z,95555.38
2022-10-19T12:13:19.024Z,95548.06
2022-10-19T12:15:45.367Z,95540.84
2022-10-19T12:18:11.730Z,95535.72
2022-10-19T12:20:38.103Z,95527.16
2022-10-19T12:23:04.446Z,95522.41
2022-10-19T12:25:30.795Z,95522.09
2022-10-19T12:27:57.186Z,95516.88
2022-10-19T12:30:23.551Z,95505.22
2022-10-19T12:32:53.482Z,95513.03
2022-10-19T12:37:52.041Z,95518.19
2022-10-19T12:40:18.413Z,95516.38
2022-10-19T12:42:44.777Z,95523.41
2022-10-19T12:45:11.140Z,95512.31
2022-10-19T12:47:37.730Z,95512.34
2022-10-19T12:50:04.243Z,95502.66
2022-10-19T12:52:30.584Z,95504.97
2022-10-19T12:54:56.931Z,95499.13
2022-10-19T12:57:23.350Z,95496.09
2022-10-19T12:59:49.708Z,95493.63
2022-10-19T13:02:16.063Z,95502.63
2022-10-19T13:04:42.434Z,95503.63
2022-10-19T13:07:08.809Z,95507.53
2022-10-19T13:09:35.204Z,95511.59
2022-10-19T13:12:01.561Z,95494.78
2022-10-19T13:14:27.915Z,95491.59
2022-10-19T13:16:54.281Z,95491.72
2022-10-19T13:19:20.631Z,95490.69
2022-10-19T13:21:46.994Z,95489.31
2022-10-19T13:24:13.368Z,95487.81
2022-10-19T13:26:39.734Z,95484.25
2022-10-19T13:29:06.095Z,95475.34
2022-10-19T13:31:32.439Z,95465.66
2022-10-19T13:33:58.811Z,95459.22
2022-10-19T13:36:25.195Z,95456.75
2022-10-19T13:38:51.767Z,95467.22
2022-10-19T13:41:18.126Z,95470.50
2022-10-19T13:43:44.501Z,95466.53
2022-10-19T13:46:10.861Z,95463.63
2022-10-19T13:48:37.220Z,95464.09
2022-10-19T13:51:03.579Z,95460.84
2022-10-19T13:53:29.943Z,95463.16
2022-10-19T13:55:56.317Z,95465.81
2022-10-19T13:58:22.672Z,95464.66
2022-10-19T14:00:49.049Z,95460.44
2022-10-19T14:03:15.404Z,95450.19
2022-10-19T14:05:41.762Z,95451.03
2022-10-19T14:08:08.113Z,95443.44
2022-10-19T14:10:56.270Z,95450.34
2022-10-19T14:13:20.872Z,95453.06
2022-10-19T14:15:47.266Z,95455.25
2022-10-19T14:18:19.187Z,95453.03
2022-10-19T14:20:45.777Z,95441.31
2022-10-19T14:23:12.141Z,95435.19
2022-10-19T14:25:38.510Z,95435.09
2022-10-19T14:28:04.887Z,95432.19
2022-10-19T14:30:31.253Z,95430.25
2022-10-19T14:33:01.187Z,95422.75
2022-10-19T14:35:28.786Z,95414.91
2022-10-19T14:37:55.214Z,95418.75
2022-10-19T14:40:26.408Z,95416.72
2022-10-19T14:42:54.332Z,95412.81
2022-10-19T14:45:20.695Z,95415.06
2022-10-19T14:47:47.059Z,95424.09
2022-10-19T14:50:13.416Z,95429.88
2022-10-19T14:52:39.797Z,95425.25
2022-10-19T14:55:06.162Z,95426.03
2022-10-19T14:57:32.729Z,95428.78
2022-10-19T14:59:59.370Z,95415.78
2022-10-19T15:02:25.746Z,95424.44
2022-10-19T15:04:52.120Z,95413.66
2022-10-19T15:07:18.481Z,95421.16
2022-10-19T15:09:48.374Z,95404.66
2022-10-19T15:12:15.033Z,95404.97
2022-10-19T15:14:41.399Z,95414.03
2022-10-19T15:17:07.773Z,95420.19
2022-10-19T15:19:34.139Z,95421.84
2022-10-19T15:22:00.485Z,95430.09
2022-10-19T15:24:26.860Z,95415.31
2022-10-19T15:27:06.658Z,95403.91
2022-10-19T15:29:35.316Z,95398.25
2022-10-19T15:32:01.682Z,95395.44
2022-10-19T15:34:28.047Z,95396.03
2022-10-19T15:36:54.395Z,95384.91
2022-10-19T15:39:33.104Z,95380.53
2022-10-19T15:42:03.369Z,95373.25
2022-10-19T15:44:29.727Z,95379.88
2022-10-19T15:46:56.101Z,95383.47
2022-10-19T15:49:22.482Z,95377.81
2022-10-19T15:51:48.832Z,95383.09
2022-10-19T15:54:15.195Z,95386.28
2022-10-19T15:56:41.544Z,95388.81
2022-10-19T15:59:07.913Z,95392.50
2022-10-19T16:01:34.340Z,95393.41
2022-10-19T16:04:00.770Z,95394.00
2022-10-19T16:06:27.136Z,95391.97
2022-10-19T16:08:53.539Z,95388.13
2022-10-19T16:11:19.922Z,95403.47
2022-10-19T16:13:46.279Z,95397.53
2022-10-19T16:16:12.640Z,95396.28
2022-10-19T16:18:38.997Z,95396.72
2022-10-19T16:21:05.364Z,95393.69
2022-10-19T16:23:31.740Z,95388.97
2022-10-19T16:25:58.169Z,95384.28
2022-10-19T16:28:24.553Z,95386.31
2022-10-19T16:30:50.913Z,95386.09
2022-10-19T16:33:17.286Z,95376.97
2022-10-19T16:35:43.639Z,95381.28
2022-10-19T16:38:10.015Z,95380.38
2022-10-19T16:40:36.396Z,95381.66
2022-10-19T16:43:02.744Z,95385.50
2022-10-19T16:45:29.123Z,95383.91
2022-10-19T16:47:55.482Z,95386.34
2022-10-19T16:50:21.852Z,95401.88
2022-10-19T16:52:48.217Z,95407.22
2022-10-19T16:55:14.588Z,95417.34
2022-10-19T16:57:40.952Z,95420.03
2022-10-19T17:00:07.321Z,95418.31
2022-10-19T17:02:33.844Z,95418.00
2022-10-19T17:05:00.531Z,95417.75
2022-10-19T17:07:26.931Z,95417.38
2022-10-19T17:09:54.930Z,95418.13
2022-10-19T17:12:21.508Z,95413.19
2022-10-19T17:14:47.860Z,95420.66
2022-10-19T17:17:14.234Z,95412.09
2022-10-19T17:19:40.594Z,95412.13
2022-10-19T17:22:06.977Z,95419.56
2022-10-19T17:24:33.340Z,95415.13
2022-10-19T17:26:59.705Z,95406.00
2022-10-19T17:29:26.089Z,95417.38
2022-10-19T17:31:52.462Z,95415.22
2022-10-19T17:34:18.893Z,95411.66
2022-10-19T17:36:45.346Z,95405.44
2022-10-19T17:39:11.724Z,95417.34
2022-10-19T17:41:38.119Z,95420.53
2022-10-19T17:44:04.498Z,95424.19
2022-10-19T17:46:30.880Z,95435.06
2022-10-19T17:48:57.253Z,95436.22
2022-10-19T17:51:23.656Z,95443.69
2022-10-19T17:53:50.020Z,95442.44
2022-10-19T17:56:16.409Z,95433.94
2022-10-19T17:58:42.798Z,95436.75
2022-10-19T18:01:09.169Z,95427.19
2022-10-19T18:03:35.538Z,95431.31
2022-10-19T18:06:03.627Z,95415.03
2022-10-19T18:08:32.132Z,95420.72
2022-10-19T18:10:58.545Z,95424.16
2022-10-19T18:13:24.952Z,95424.56
2022-10-19T18:15:51.374Z,95430.13
2022-10-19T18:18:17.719Z,95426.78
2022-10-19T18:20:44.078Z,95429.47
2022-10-19T18:23:10.462Z,95428.34
2022-10-19T18:25:53.395Z,95437.59
2022-10-19T18:28:20.485Z,95428.66
2022-10-19T18:30:46.855Z,95421.63
2022-10-19T18:33:13.244Z,95411.56
2022-10-19T18:35:39.608Z,95419.06
2022-10-19T18:38:05.963Z,95415.09
2022-10-19T18:40:32.404Z,95421.16
2022-10-19T18:42:58.753Z,95426.38
2022-10-19T18:45:25.134Z,95430.03
2022-10-19T18:47:51.497Z,95441.03
2022-10-19T18:50:17.867Z,95433.06
2022-10-19T18:52:44.252Z,95421.69
2022-10-19T18:55:10.610Z,95427.34
2022-10-19T18:57:36.970Z,95420.78
2022-10-19T19:00:03.363Z,95416.66
2022-10-19T19:02:42.427Z,95413.41
2022-10-19T19:05:12.615Z,95411.16
2022-10-19T19:07:38.995Z,95409.72
2022-10-19T19:10:05.365Z,95417.44
2022-10-19T19:12:31.725Z,95408.00
2022-10-19T19:14:58.093Z,95405.66
2022-10-19T19:17:24.463Z,95413.19
2022-10-19T19:19:50.824Z,95416.22
2022-10-19T19:22:17.194Z,95414.38
2022-10-19T19:24:43.567Z,95416.88
2022-10-19T19:27:09.915Z,95413.94
2022-10-19T19:29:36.273Z,95413.50
2022-10-19T19:32:02.637Z,95402.31
2022-10-19T19:34:29.006Z,95414.69
2022-10-19T19:36:55.373Z,95414.69
2022-10-19T19:39:21.731Z,95414.63
2022-10-19T19:41:48.112Z,95417.63
2022-10-19T19:44:14.480Z,95421.56
2022-10-19T19:46:40.855Z,95414.78
2022-10-19T19:49:07.225Z,95413.88
2022-10-19T19:51:33.584Z,95420.81
2022-10-19T19:53:59.979Z,95414.63
2022-10-19T19:56:26.372Z,95413.78
2022-10-19T19:58:52.731Z,95415.88
2022-10-19T20:01:19.126Z,95411.94
2022-10-19T20:03:45.563Z,95416.28
2022-10-19T20:06:11.953Z,95417.28
2022-10-19T20:08:38.348Z,95418.03
2022-10-19T20:11:04.721Z,95420.56
2022-10-19T20:13:31.087Z,95424.31
2022-10-19T20:15:57.443Z,95424.56
2022-10-19T20:18:23.791Z,95418.88
2022-10-19T20:20:50.164Z,95416.03
2022-10-19T20:23:16.515Z,95415.53
2022-10-19T20:25:42.888Z,95425.16
2022-10-19T20:28:09.281Z,95430.69
2022-10-19T20:30:35.645Z,95432.66
2022-10-19T20:33:02.000Z,95436.88
2022-10-19T20:35:28.366Z,95439.22
2022-10-19T20:37:54.740Z,95434.41
2022-10-19T20:40:21.133Z,95427.25
2022-10-19T20:42:47.553Z,95431.75
2022-10-19T20:45:13.928Z,95429.50
2022-10-19T20:47:40.307Z,95434.25
2022-10-19T20:50:06.679Z,95438.59
2022-10-19T20:52:33.352Z,95436.66
2022-10-19T20:55:00.047Z,95438.00
2022-10-19T20:57:26.396Z,95430.25
2022-10-19T20:59:52.774Z,95427.56
2022-10-19T21:02:19.144Z,95427.06
2022-10-19T21:04:45.511Z,95422.56
2022-10-19T21:07:11.867Z,95415.63
2022-10-19T21:09:38.236Z,95424.06
2022-10-19T21:12:04.588Z,95415.53
2022-10-19T21:14:31.033Z,95426.41
2022-10-19T21:16:57.449Z,95428.94
2022-10-19T21:19:23.831Z,95430.78
2022-10-19T21:21:50.194Z,95431.44
2022-10-19T21:24:16.551Z,95437.50
2022-10-19T21:26:42.970Z,95433.94
2022-10-19T21:29:09.346Z,95439.78
2022-10-19T21:31:35.712Z,95433.09
2022-10-19T21:34:02.092Z,95430.94
2022-10-19T21:36:28.548Z,95430.41
2022-10-19T21:38:54.942Z,95433.44
2022-10-19T21:41:25.327Z,95427.25
2022-10-19T21:43:52.891Z,95424.06
2022-10-19T21:46:19.260Z,95424.00
2022-10-19T21:48:45.657Z,95425.41
2022-10-19T21:51:12.066Z,95421.22
2022-10-19T21:53:38.448Z,95420.81
2022-10-19T21:56:04.821Z,95418.88
2022-10-19T21:58:31.191Z,95417.38
2022-10-19T22:00:57.583Z,95416.34
2022-10-19T22:03:23.941Z,95413.00
2022-10-19T22:05:50.359Z,95409.44
2022-10-19T22:08:16.725Z,95399.66
2022-10-19T22:10:43.098Z,95406.69
2022-10-19T22:13:09.614Z,95407.84
2022-10-19T22:15:35.993Z,95403.34
2022-10-19T22:18:02.377Z,95410.28
2022-10-19T22:20:28.767Z,95406.34
2022-10-19T22:22:55.156Z,95413.53
2022-10-19T22:25:21.543Z,95404.44
2022-10-19T22:27:47.953Z,95397.84
2022-10-19T22:30:14.329Z,95401.03
2022-10-19T22:32:40.706Z,95387.38
2022-10-19T22:35:07.055Z,95389.91
2022-10-19T22:37:33.411Z,95394.91
2022-10-19T22:39:59.780Z,95386.34
2022-10-19T22:42:26.155Z,95386.53
2022-10-19T22:44:52.513Z,95376.97
2022-10-19T22:47:18.894Z,95380.22
2022-10-19T22:49:45.276Z,95375.34
2022-10-19T22:52:11.645Z,95373.66
2022-10-19T22:54:38.012Z,95382.09
2022-10-19T22:57:04.365Z,95370.53
2022-10-19T22:59:30.759Z,95368.97
2022-10-19T23:01:57.170Z,95369.72
2022-10-19T23:04:23.581Z,95365.75
2022-10-19T23:06:49.954Z,95366.09
2022-10-19T23:09:16.309Z,95365.00
2022-10-19T23:11:42.704Z,95361.31
2022-10-19T23:14:09.055Z,95357.81
2022-10-19T23:16:35.438Z,95356.63
2022-10-19T23:19:01.790Z,95342.66
2022-10-19T23:21:28.165Z,95346.84
2022-10-19T23:23:54.522Z,95342.66
2022-10-19T23:26:20.876Z,95340.84
2022-10-19T23:28:47.278Z,95341.31
2022-10-19T23:31:13.863Z,95334.31
2022-10-19T23:33:40.207Z,95337.19
2022-10-19T23:36:06.591Z,95337.09
2022-10-19T23:38:32.940Z,95330.00
2022-10-19T23:40:59.348Z,95333.16
2022-10-19T23:43:25.774Z,95328.50
2022-10-19T23:45:52.238Z,95330.66
2022-10-19T23:48:18.624Z,95333.09
2022-10-19T23:50:44.983Z,95326.72
2022-10-19T23:53:11.344Z,95330.41
2022-10-19T23:55:37.729Z,95327.66
2022-10-19T23:58:04.093Z,95338.44
